createdAt,value
2022-10-17T00:01:13.201Z,83.15
2022-10-17T00:03:41.780Z,83.24
2022-10-17T00:06:13.572Z,83.32
2022-10-17T00:08:43.215Z,83.41
2022-10-17T00:11:18.560Z,83.45
2022-10-17T00:13:47.595Z,83.56
2022-10-17T00:16:16.551Z,83.52
2022-10-17T00:18:45.124Z,83.49
2022-10-17T00:21:17.096Z,83.75
2022-10-17T00:23:45.647Z,83.83
2022-10-17T00:26:14.106Z,83.89
2022-10-17T00:28:42.576Z,83.91
2022-10-17T00:31:13.191Z,83.96
2022-10-17T00:33:42.758Z,84.13
2022-10-17T00:36:14.103Z,84.39
2022-10-17T00:38:44.162Z,84.48
2022-10-17T00:41:14.821Z,84.49
2022-10-17T00:43:58.318Z,84.48
2022-10-17T00:46:28.612Z,84.65
2022-10-17T00:48:58.374Z,84.55
2022-10-17T00:51:32.369Z,84.51
2022-10-17T00:54:01.906Z,84.48
2022-10-17T00:56:33.509Z,84.69
2022-10-17T00:59:02.017Z,84.80
2022-10-17T01:01:30.379Z,84.80
2022-10-17T01:03:58.889Z,84.80
2022-10-17T01:06:27.344Z,84.84
2022-10-17T01:08:56.094Z,85.06
2022-10-17T01:11:33.339Z,85.01
2022-10-17T01:14:04.437Z,85.04
2022-10-17T01:16:42.842Z,85.30
2022-10-17T01:19:31.914Z,85.58
2022-10-17T01:22:02.055Z,85.54
2022-10-17T01:24:45.377Z,85.51
2022-10-17T01:27:32.276Z,85.70
2022-10-17T01:30:26.916Z,85.96
2022-10-17T01:32:54.613Z,86.08
2022-10-17T01:35:25.879Z,86.44
2022-10-17T01:37:59.306Z,86.56
2022-10-17T01:40:29.647Z,86.86
2022-10-17T01:43:02.084Z,86.98
2022-10-17T01:45:33.607Z,86.90
2022-10-17T01:48:07.521Z,86.86
2022-10-17T01:50:40.294Z,86.88
2022-10-17T01:53:12.062Z,86.94
2022-10-17T01:55:42.025Z,86.84
2022-10-17T01:58:12.509Z,86.98
2022-10-17T02:00:42.205Z,87.30
2022-10-17T02:03:13.755Z,87.14
2022-10-17T02:05:43.552Z,87.11
2022-10-17T02:08:12.242Z,87.20
2022-10-17T02:10:46.777Z,87.23
2022-10-17T02:13:22.378Z,87.14
2022-10-17T02:16:01.439Z,87.08
2022-10-17T02:18:54.929Z,87.15
2022-10-17T02:21:29.953Z,87.21
2022-10-17T02:24:06.697Z,87.27
2022-10-17T02:26:43.192Z,87.47
2022-10-17T02:29:15.351Z,87.76
2022-10-17T02:31:47.399Z,87.91
2022-10-17T02:34:19.748Z,87.71
2022-10-17T02:36:51.038Z,87.66
2022-10-17T02:39:20.065Z,87.63
2022-10-17T02:41:49.161Z,87.58
2022-10-17T02:44:18.353Z,87.58
2022-10-17T02:46:54.347Z,87.49
2022-10-17T02:49:29.488Z,87.39
2022-10-17T02:52:01.260Z,87.61
2022-10-17T02:54:36.285Z,87.65
2022-10-17T02:57:10.394Z,87.86
2022-10-17T02:59:41.579Z,87.68
2022-10-17T03:02:10.747Z,87.57
2022-10-17T03:04:45.434Z,87.80
2022-10-17T03:07:14.409Z,87.74
2022-10-17T03:09:42.929Z,87.90
2022-10-17T03:12:11.285Z,87.83
2022-10-17T03:14:39.626Z,87.86
2022-10-17T03:17:07.918Z,87.99
2022-10-17T03:19:36.168Z,88.28
2022-10-17T03:22:04.649Z,88.25
2022-10-17T03:24:33.066Z,88.20
2022-10-17T03:27:01.413Z,88.01
2022-10-17T03:29:31.389Z,88.30
2022-10-17T03:32:00.679Z,87.97
2022-10-17T03:34:29.661Z,88.20
2022-10-17T03:36:58.091Z,88.26
2022-10-17T03:39:26.789Z,88.31
2022-10-17T03:41:55.762Z,88.23
2022-10-17T03:44:24.225Z,88.58
2022-10-17T03:46:54.220Z,88.67
2022-10-17T03:49:22.621Z,88.73
2022-10-17T03:51:51.050Z,88.78
2022-10-17T03:54:19.441Z,89.07
2022-10-17T03:56:47.898Z,89.13
2022-10-17T03:59:16.653Z,89.10
2022-10-17T04:01:45.272Z,89.48
2022-10-17T04:04:13.679Z,89.84
2022-10-17T04:06:42.568Z,90.10
2022-10-17T04:09:11.053Z,90.05
2022-10-17T04:11:39.501Z,89.88
2022-10-17T04:14:07.900Z,89.89
2022-10-17T04:16:36.265Z,89.95
2022-10-17T04:19:05.107Z,89.93
2022-10-17T04:21:33.818Z,90.13
2022-10-17T04:24:02.520Z,90.26
2022-10-17T04:26:31.335Z,90.08
2022-10-17T04:28:59.820Z,90.21
2022-10-17T04:31:31.004Z,90.31
2022-10-17T04:33:59.855Z,90.34
2022-10-17T04:36:28.755Z,90.29
2022-10-17T04:38:57.110Z,90.29
2022-10-17T04:41:26.189Z,90.21
2022-10-17T04:43:55.092Z,90.56
2022-10-17T04:46:23.596Z,91.05
2022-10-17T04:48:53.408Z,90.85
2022-10-17T04:51:26.518Z,90.86
2022-10-17T04:53:55.764Z,90.78
2022-10-17T04:56:25.372Z,90.70
2022-10-17T04:58:53.758Z,90.79
2022-10-17T05:01:23.321Z,90.81
2022-10-17T05:03:52.217Z,90.78
2022-10-17T05:06:24.610Z,91.06
2022-10-17T05:08:55.928Z,90.95
2022-10-17T05:11:26.016Z,90.85
2022-10-17T05:13:56.670Z,90.96
2022-10-17T05:16:25.532Z,90.74
2022-10-17T05:18:55.263Z,90.64
2022-10-17T05:21:25.170Z,90.85
2022-10-17T05:23:56.512Z,90.75
2022-10-17T05:26:26.284Z,90.87
2022-10-17T05:28:55.624Z,91.09
2022-10-17T05:31:24.192Z,90.84
2022-10-17T05:33:52.685Z,91.21
2022-10-17T05:36:22.155Z,90.95
2022-10-17T05:38:50.942Z,90.98
2022-10-17T05:41:20.751Z,90.82
2022-10-17T05:43:49.632Z,90.80
2022-10-17T05:46:18.193Z,90.87
2022-10-17T05:48:46.992Z,90.88
2022-10-17T05:51:15.676Z,90.80
2022-10-17T05:53:44.066Z,91.15
2022-10-17T05:56:14.335Z,91.08
2022-10-17T05:58:56.197Z,90.96
2022-10-17T06:01:27.430Z,90.93
2022-10-17T06:04:00.184Z,91.02
2022-10-17T06:06:34.870Z,90.93
2022-10-17T06:09:04.218Z,91.04
2022-10-17T06:11:36.713Z,91.06
2022-10-17T06:14:09.494Z,90.97
2022-10-17T06:16:38.752Z,91.06
2022-10-17T06:19:07.800Z,91.11
2022-10-17T06:21:38.265Z,90.98
2022-10-17T06:24:09.362Z,91.14
2022-10-17T06:26:38.205Z,91.26
2022-10-17T06:29:15.531Z,91.16
2022-10-17T06:31:44.467Z,91.41
2022-10-17T06:34:16.421Z,91.31
2022-10-17T06:36:46.359Z,91.28
2022-10-17T06:39:15.160Z,91.40
2022-10-17T06:41:44.230Z,91.28
2022-10-17T06:44:13.015Z,91.48
2022-10-17T06:46:44.379Z,91.35
2022-10-17T06:49:13.122Z,91.38
2022-10-17T06:51:41.739Z,91.49
2022-10-17T06:54:10.488Z,91.31
2022-10-17T06:56:38.824Z,91.26
2022-10-17T06:59:09.158Z,91.24
2022-10-17T07:01:41.829Z,91.21
2022-10-17T07:04:15.933Z,91.21
2022-10-17T07:06:45.313Z,91.35
2022-10-17T07:09:14.052Z,91.28
2022-10-17T07:11:42.702Z,91.23
2022-10-17T07:14:11.181Z,91.36
2022-10-17T07:16:39.665Z,91.16
2022-10-17T07:19:08.281Z,91.18
2022-10-17T07:21:39.131Z,91.18
2022-10-17T07:24:08.239Z,91.18
2022-10-17T07:26:38.109Z,91.19
2022-10-17T07:29:07.114Z,90.91
2022-10-17T07:31:35.920Z,90.82
2022-10-17T07:34:05.580Z,90.95
2022-10-17T07:36:34.332Z,90.64
2022-10-17T07:39:04.473Z,90.33
2022-10-17T07:41:33.808Z,90.15
2022-10-17T07:44:05.236Z,89.87
2022-10-17T07:46:34.351Z,89.76
2022-10-17T07:49:02.777Z,89.63
2022-10-17T07:51:33.624Z,89.34
2022-10-17T07:54:05.658Z,89.05
2022-10-17T07:56:34.217Z,88.94
2022-10-17T07:59:05.316Z,88.55
2022-10-17T08:01:37.409Z,88.67
2022-10-17T08:04:06.241Z,88.84
2022-10-17T08:06:34.956Z,88.79
2022-10-17T08:09:03.828Z,88.58
2022-10-17T08:11:32.639Z,87.98
2022-10-17T08:14:07.764Z,87.27
2022-10-17T08:16:36.950Z,86.66
2022-10-17T08:19:12.740Z,85.97
2022-10-17T08:21:43.002Z,85.66
2022-10-17T08:24:14.221Z,85.71
2022-10-17T08:26:49.573Z,85.45
2022-10-17T08:29:20.247Z,84.94
2022-10-17T08:31:52.412Z,84.25
2022-10-17T08:34:25.464Z,83.63
2022-10-17T08:36:54.613Z,83.32
2022-10-17T08:39:23.221Z,83.44
2022-10-17T08:42:05.887Z,83.51
2022-10-17T08:44:46.226Z,83.55
2022-10-17T08:47:20.025Z,82.96
2022-10-17T08:49:55.192Z,82.77
2022-10-17T08:52:30.555Z,83.04
2022-10-17T08:54:59.484Z,81.46
2022-10-17T08:57:28.769Z,80.01
2022-10-17T08:59:57.720Z,79.24
2022-10-17T09:02:39.560Z,77.87
2022-10-17T09:05:35.975Z,74.68
2022-10-17T09:08:14.774Z,73.08
2022-10-17T09:10:53.033Z,72.62
2022-10-17T09:13:33.002Z,72.66
2022-10-17T09:16:11.615Z,69.56
2022-10-17T09:18:42.612Z,68.89
2022-10-17T09:21:21.427Z,67.06
2022-10-17T09:23:59.656Z,66.85
2022-10-17T09:26:39.558Z,66.57
2022-10-17T09:29:17.782Z,62.93
2022-10-17T09:31:49.403Z,63.91
2022-10-17T09:34:17.922Z,63.66
2022-10-17T09:36:46.251Z,61.90
2022-10-17T09:39:19.557Z,60.87
2022-10-17T09:41:51.133Z,60.48
2022-10-17T09:44:22.259Z,59.47
2022-10-17T09:47:06.093Z,58.69
2022-10-17T09:49:38.978Z,58.94
2022-10-17T09:52:14.554Z,60.06
2022-10-17T09:54:45.713Z,59.74
2022-10-17T09:57:15.553Z,59.16
2022-10-17T09:59:47.203Z,60.87
2022-10-17T10:02:18.787Z,61.39
2022-10-17T10:05:04.696Z,61.34
2022-10-17T10:07:37.747Z,61.19
2022-10-17T10:10:08.608Z,61.25
2022-10-17T10:12:38.851Z,61.98
2022-10-17T10:15:32.038Z,62.05
2022-10-17T10:18:01.482Z,60.68
2022-10-17T10:20:33.749Z,60.50
2022-10-17T10:23:23.707Z,61.79
2022-10-17T10:25:59.675Z,62.12
2022-10-17T10:28:29.768Z,62.04
2022-10-17T10:31:00.475Z,61.34
2022-10-17T10:33:34.311Z,61.30
2022-10-17T10:36:05.956Z,61.58
2022-10-17T10:38:34.949Z,61.76
2022-10-17T10:41:07.559Z,61.61
2022-10-17T10:43:40.017Z,61.42
2022-10-17T10:46:19.732Z,61.37
2022-10-17T10:48:54.015Z,61.63
2022-10-17T10:51:28.300Z,61.49
2022-10-17T10:54:05.196Z,61.44
2022-10-17T10:56:43.590Z,61.21
2022-10-17T10:59:25.445Z,61.78
2022-10-17T11:01:58.013Z,61.33
2022-10-17T11:04:31.595Z,61.57
2022-10-17T11:07:08.039Z,61.40
2022-10-17T11:09:46.921Z,61.90
2022-10-17T11:12:20.943Z,61.16
2022-10-17T11:14:53.761Z,59.66
2022-10-17T11:17:42.495Z,59.97
2022-10-17T11:20:33.914Z,60.45
2022-10-17T11:23:15.489Z,59.56
2022-10-17T11:25:44.442Z,60.18
2022-10-17T11:28:16.935Z,60.41
2022-10-17T11:30:51.707Z,60.76
2022-10-17T11:33:30.394Z,60.30
2022-10-17T11:36:07.160Z,59.95
2022-10-17T11:38:45.680Z,59.66
2022-10-17T11:41:17.466Z,59.18
2022-10-17T11:43:51.921Z,58.88
2022-10-17T11:46:23.614Z,59.59
2022-10-17T11:49:12.357Z,59.54
2022-10-17T11:52:05.416Z,59.89
2022-10-17T11:54:38.144Z,60.07
2022-10-17T11:57:38.497Z,60.45
2022-10-17T12:00:26.494Z,60.56
2022-10-17T12:03:15.963Z,60.37
2022-10-17T12:05:52.635Z,60.44
2022-10-17T12:08:30.556Z,59.31
2022-10-17T12:11:03.948Z,59.56
2022-10-17T12:13:56.411Z,59.33
2022-10-17T12:16:45.795Z,59.45
2022-10-17T12:19:36.854Z,59.74
2022-10-17T12:22:26.577Z,59.43
2022-10-17T12:25:00.693Z,58.68
2022-10-17T12:27:45.838Z,58.56
2022-10-17T12:30:25.253Z,58.98
2022-10-17T12:33:07.388Z,59.24
2022-10-17T12:35:39.361Z,58.71
2022-10-17T12:38:21.388Z,59.38
2022-10-17T12:41:06.192Z,59.53
2022-10-17T12:43:52.586Z,59.15
2022-10-17T12:46:57.478Z,58.59
2022-10-17T12:49:39.449Z,57.95
2022-10-17T12:52:23.336Z,58.23
2022-10-17T12:55:13.512Z,58.53
2022-10-17T12:57:56.184Z,58.35
2022-10-17T13:00:33.015Z,59.04
2022-10-17T13:03:12.541Z,58.88
2022-10-17T13:05:48.219Z,57.93
2022-10-17T13:08:20.263Z,57.80
2022-10-17T13:10:52.545Z,57.30
2022-10-17T13:13:25.447Z,57.63
2022-10-17T13:15:56.183Z,57.50
2022-10-17T13:18:30.019Z,58.05
2022-10-17T13:21:02.601Z,57.81
2022-10-17T13:23:35.304Z,58.12
2022-10-17T13:26:12.288Z,57.22
2022-10-17T13:28:42.203Z,57.50
2022-10-17T13:31:47.123Z,57.82
2022-10-17T13:34:35.608Z,58.28
2022-10-17T13:37:06.315Z,58.62
2022-10-17T13:39:55.156Z,58.54
2022-10-17T13:42:29.905Z,58.84
2022-10-17T13:44:59.370Z,58.84
2022-10-17T13:47:31.668Z,58.67
2022-10-17T13:50:01.085Z,58.77
2022-10-17T13:52:31.195Z,58.48
2022-10-17T13:55:16.567Z,58.71
2022-10-17T13:57:48.465Z,58.75
2022-10-17T14:00:20.645Z,59.06
2022-10-17T14:02:49.752Z,58.88
2022-10-17T14:05:20.319Z,59.09
2022-10-17T14:08:13.374Z,59.23
2022-10-17T14:10:45.996Z,59.30
2022-10-17T14:13:22.507Z,59.41
2022-10-17T14:15:54.926Z,59.42
2022-10-17T14:18:35.778Z,59.56
2022-10-17T14:24:15.473Z,59.33
2022-10-17T14:26:59.189Z,59.62
2022-10-17T14:29:29.628Z,59.76
2022-10-17T14:32:13.043Z,59.80
2022-10-17T14:34:41.641Z,59.90
2022-10-17T14:37:11.520Z,60.08
2022-10-17T14:39:40.789Z,60.18
2022-10-17T14:42:19.147Z,60.33
2022-10-17T14:44:49.844Z,60.43
2022-10-17T14:47:42.161Z,60.48
2022-10-17T14:50:26.067Z,60.64
2022-10-17T14:53:04.455Z,60.84
2022-10-17T14:55:35.302Z,61.01
2022-10-17T14:58:16.654Z,61.12
2022-10-17T15:00:45.268Z,61.20
2022-10-17T15:03:14.001Z,61.38
2022-10-17T15:05:42.573Z,61.52
2022-10-17T15:08:13.981Z,61.63
2022-10-17T15:10:43.289Z,61.73
2022-10-17T15:13:27.594Z,61.90
2022-10-17T15:15:58.725Z,61.89
2022-10-17T15:18:27.478Z,62.00
2022-10-17T15:21:04.761Z,62.07
2022-10-17T15:23:42.016Z,62.15
2022-10-17T15:26:14.906Z,62.31
2022-10-17T15:28:43.836Z,62.49
2022-10-17T15:31:14.555Z,62.60
2022-10-17T15:33:43.801Z,62.66
2022-10-17T15:36:20.431Z,62.74
2022-10-17T15:38:49.680Z,62.98
2022-10-17T15:41:18.423Z,62.96
2022-10-17T15:43:47.846Z,63.13
2022-10-17T15:46:18.733Z,63.17
2022-10-17T15:48:47.988Z,63.44
2022-10-17T15:51:16.844Z,63.52
2022-10-17T15:53:45.180Z,63.73
2022-10-17T15:56:22.189Z,63.83
2022-10-17T15:58:50.949Z,64.09
2022-10-17T16:01:23.712Z,64.12
2022-10-17T16:03:52.277Z,64.24
2022-10-17T16:06:23.979Z,64.46
2022-10-17T16:08:53.144Z,64.66
2022-10-17T16:11:26.527Z,64.74
2022-10-17T16:13:56.759Z,64.89
2022-10-17T16:16:25.131Z,65.13
2022-10-17T16:18:53.621Z,65.27
2022-10-17T16:21:25.124Z,65.39
2022-10-17T16:23:53.779Z,65.55
2022-10-17T16:26:27.189Z,65.69
2022-10-17T16:28:57.543Z,65.98
2022-10-17T16:31:28.906Z,66.16
2022-10-17T16:33:58.918Z,66.29
2022-10-17T16:36:27.571Z,66.36
2022-10-17T16:38:55.903Z,66.54
2022-10-17T16:41:26.828Z,66.70
2022-10-17T16:43:57.119Z,66.78
2022-10-17T16:46:27.406Z,66.92
2022-10-17T16:48:57.513Z,67.13
2022-10-17T16:51:25.964Z,67.24
2022-10-17T16:53:59.515Z,67.32
2022-10-17T16:56:31.072Z,67.50
2022-10-17T16:58:59.878Z,67.54
2022-10-17T17:01:29.181Z,67.62
2022-10-17T17:03:57.544Z,67.75
2022-10-17T17:06:27.583Z,67.90
2022-10-17T17:08:57.344Z,67.95
2022-10-17T17:11:27.728Z,68.08
2022-10-17T17:13:57.173Z,68.27
2022-10-17T17:16:27.838Z,68.46
2022-10-17T17:18:57.611Z,68.47
2022-10-17T17:21:26.477Z,68.60
2022-10-17T17:23:57.683Z,68.69
2022-10-17T17:26:27.490Z,68.91
2022-10-17T17:28:58.409Z,69.06
2022-10-17T17:31:30.451Z,69.23
2022-10-17T17:33:59.278Z,69.39
2022-10-17T17:36:29.186Z,69.55
2022-10-17T17:39:03.101Z,70.02
2022-10-17T17:41:31.936Z,70.31
2022-10-17T17:44:01.368Z,70.52
2022-10-17T17:46:30.170Z,70.66
2022-10-17T17:48:58.798Z,70.81
2022-10-17T17:51:29.453Z,70.96
2022-10-17T17:53:58.683Z,71.19
2022-10-17T17:56:29.190Z,71.38
2022-10-17T17:58:59.184Z,71.46
2022-10-17T18:01:30.812Z,71.55
2022-10-17T18:04:00.027Z,71.77
2022-10-17T18:06:29.129Z,71.77
2022-10-17T18:08:58.673Z,71.98
2022-10-17T18:11:27.621Z,72.08
2022-10-17T18:13:56.719Z,72.19
2022-10-17T18:16:26.009Z,72.12
2022-10-17T18:18:54.667Z,72.32
2022-10-17T18:21:23.460Z,72.38
2022-10-17T18:23:52.313Z,72.37
2022-10-17T18:26:21.135Z,72.61
2022-10-17T18:28:50.266Z,72.71
2022-10-17T18:31:23.681Z,72.56
2022-10-17T18:33:53.377Z,72.72
2022-10-17T18:36:22.332Z,72.80
2022-10-17T18:38:50.868Z,72.67
2022-10-17T18:41:21.148Z,72.72
2022-10-17T18:43:50.980Z,72.62
2022-10-17T18:46:21.724Z,72.74
2022-10-17T18:48:51.071Z,72.76
2022-10-17T18:51:20.740Z,72.88
2022-10-17T18:53:51.139Z,72.93
2022-10-17T18:56:22.075Z,73.17
2022-10-17T18:58:51.249Z,73.21
2022-10-17T19:01:22.205Z,73.45
2022-10-17T19:03:52.478Z,73.70
2022-10-17T19:06:23.182Z,73.67
2022-10-17T19:08:51.811Z,73.71
2022-10-17T19:11:22.765Z,73.67
2022-10-17T19:13:51.950Z,73.83
2022-10-17T19:16:23.137Z,73.98
2022-10-17T19:18:52.264Z,74.16
2022-10-17T19:21:22.894Z,74.43
2022-10-17T19:23:53.904Z,74.51
2022-10-17T19:26:23.106Z,74.57
2022-10-17T19:28:53.546Z,74.58
2022-10-17T19:31:26.756Z,74.69
2022-10-17T19:33:56.460Z,75.03
2022-10-17T19:36:29.064Z,75.28
2022-10-17T19:39:01.960Z,75.52
2022-10-17T19:41:30.528Z,75.48
2022-10-17T19:43:59.337Z,75.67
2022-10-17T19:46:29.296Z,75.81
2022-10-17T19:48:57.968Z,76.25
2022-10-17T19:51:27.018Z,76.12
2022-10-17T19:53:59.722Z,76.44
2022-10-17T19:56:30.354Z,76.52
2022-10-17T19:58:59.349Z,76.89
2022-10-17T20:01:30.319Z,77.13
2022-10-17T20:04:01.536Z,77.26
2022-10-17T20:06:30.111Z,77.31
2022-10-17T20:08:59.051Z,77.40
2022-10-17T20:11:28.932Z,77.64
2022-10-17T20:13:58.854Z,77.69
2022-10-17T20:16:31.045Z,78.07
2022-10-17T20:19:06.226Z,78.13
2022-10-17T20:21:36.324Z,78.24
2022-10-17T20:24:09.942Z,78.05
2022-10-17T20:26:41.174Z,78.08
2022-10-17T20:29:15.341Z,78.32
2022-10-17T20:31:43.443Z,78.39
2022-10-17T20:34:17.149Z,78.40
2022-10-17T20:36:46.479Z,78.55
2022-10-17T20:39:16.898Z,78.66
2022-10-17T20:41:47.052Z,78.47
2022-10-17T20:44:16.046Z,78.91
2022-10-17T20:47:00.559Z,78.85
2022-10-17T20:49:31.195Z,78.91
2022-10-17T20:52:01.225Z,79.07
2022-10-17T20:54:29.829Z,78.93
2022-10-17T20:57:01.200Z,79.02
2022-10-17T20:59:34.545Z,79.22
2022-10-17T21:02:04.072Z,79.23
2022-10-17T21:04:45.888Z,79.25
2022-10-17T21:07:16.175Z,79.68
2022-10-17T21:09:45.764Z,79.82
2022-10-17T21:12:30.892Z,79.79
2022-10-17T21:15:07.186Z,80.09
2022-10-17T21:17:36.849Z,79.92
2022-10-17T21:20:07.843Z,79.63
2022-10-17T21:22:36.392Z,79.93
2022-10-17T21:25:09.112Z,79.88
2022-10-17T21:27:37.917Z,79.88
2022-10-17T21:30:14.125Z,80.00
2022-10-17T21:32:53.529Z,79.98
2022-10-17T21:35:26.177Z,80.25
2022-10-17T21:37:54.942Z,80.61
2022-10-17T21:40:23.853Z,80.87
2022-10-17T21:42:52.466Z,80.75
2022-10-17T21:45:25.835Z,80.97
2022-10-17T21:48:13.149Z,81.12
2022-10-17T21:50:45.483Z,81.24
2022-10-17T21:53:14.039Z,81.11
2022-10-17T21:55:43.431Z,81.57
2022-10-17T21:58:11.817Z,81.65
2022-10-17T22:00:44.840Z,81.94
2022-10-17T22:03:16.579Z,81.94
2022-10-17T22:05:48.109Z,82.07
2022-10-17T22:08:16.671Z,82.13
2022-10-17T22:10:45.503Z,82.21
2022-10-17T22:13:14.200Z,82.19
2022-10-17T22:15:43.312Z,82.28
2022-10-17T22:18:11.727Z,82.16
2022-10-17T22:20:40.435Z,82.27
2022-10-17T22:23:08.971Z,82.07
2022-10-17T22:25:37.460Z,82.39
2022-10-17T22:28:06.008Z,82.43
2022-10-17T22:30:34.549Z,82.37
2022-10-17T22:33:05.483Z,82.45
2022-10-17T22:35:34.945Z,82.23
2022-10-17T22:38:03.559Z,82.86
2022-10-17T22:40:31.973Z,82.61
2022-10-17T22:43:07.786Z,82.92
2022-10-17T22:45:36.572Z,82.70
2022-10-17T22:48:06.414Z,82.97
2022-10-17T22:50:37.361Z,82.77
2022-10-17T22:53:06.255Z,83.02
2022-10-17T22:55:34.626Z,83.26
2022-10-17T22:58:04.307Z,83.17
2022-10-17T23:00:32.934Z,83.24
2022-10-17T23:03:02.299Z,83.46
2022-10-17T23:05:30.606Z,83.35
2022-10-17T23:08:01.380Z,83.42
2022-10-17T23:10:29.725Z,83.58
2022-10-17T23:12:58.307Z,83.65
2022-10-17T23:15:27.093Z,83.62
2022-10-17T23:17:55.829Z,83.65
2022-10-17T23:20:24.977Z,83.76
2022-10-17T23:22:54.739Z,83.73
2022-10-17T23:25:23.381Z,84.05
2022-10-17T23:27:51.857Z,83.94
2022-10-17T23:30:20.484Z,84.08
2022-10-17T23:32:49.540Z,83.96
2022-10-17T23:35:18.326Z,83.98
2022-10-17T23:37:47.018Z,83.96
2022-10-17T23:40:16.767Z,83.96
2022-10-17T23:42:45.414Z,83.88
2022-10-17T23:45:15.045Z,83.99
2022-10-17T23:47:49.754Z,84.08
2022-10-17T23:50:19.015Z,84.12
2022-10-17T23:52:47.848Z,84.13
2022-10-17T23:55:16.758Z,84.31
2022-10-17T23:57:45.721Z,84.30
